sensor_id;sensor_type;location;lat;lon;timestamp;pressure;altitude;pressure_sealevel;temperature;humidity
37420;BME280;47344;52.374;4.816;2023-02-02T00:00:21;102038.0;;;9.4;100.0
37420;BME280;47344;52.374;4.816;2023-02-02T00:02:00;102048.0;;;9.56;100.0
37420;BME280;47344;52.374;4.816;2023-02-02T00:05:13;102048.0;;;9.48;100.0
37420;BME280;47344;52.374;4.816;2023-02-02T00:06:50;102052.0;;;9.55;100.0
37420;BME280;47344;52.374;4.816;2023-02-02T00:08:27;102057.0;;;9.5;100.0
37420;BME280;47344;52.374;4.816;2023-02-02T00:11:43;102064.0;;;9.51;100.0
37420;BME280;47344;52.374;4.816;2023-02-02T00:13:19;102052.0;;;9.46;100.0
37420;BME280;47344;52.374;4.816;2023-02-02T00:14:56;102072.0;;;9.23;99.92
37420;BME280;47344;52.374;4.816;2023-02-02T00:16:35;102078.0;;;9.05;100.0
37420;BME280;47344;52.374;4.816;2023-02-02T00:19:49;102077.0;;;8.83;99.66
37420;BME280;47344;52.374;4.816;2023-02-02T00:21:26;102083.0;;;8.82;100.0
37420;BME280;47344;52.374;4.816;2023-02-02T00:23:03;102071.0;;;8.75;100.0
37420;BME280;47344;52.374;4.816;2023-02-02T00:26:16;102071.0;;;8.64;100.0
37420;BME280;47344;52.374;4.816;2023-02-02T00:27:53;102078.0;;;8.63;100.0
37420;BME280;47344;52.374;4.816;2023-02-02T00:29:30;102074.0;;;8.6;100.0
37420;BME280;47344;52.374;4.816;2023-02-02T00:31:07;102075.0;;;8.4;100.0
37420;BME280;47344;52.374;4.816;2023-02-02T00:34:23;102073.0;;;8.55;100.0
37420;BME280;47344;52.374;4.816;2023-02-02T00:36:01;102076.0;;;8.58;100.0
37420;BME280;47344;52.374;4.816;2023-02-02T00:37:38;102068.0;;;8.48;100.0
37420;BME280;47344;52.374;4.816;2023-02-02T00:40:53;102080.0;;;8.55;100.0
37420;BME280;47344;52.374;4.816;2023-02-02T00:42:29;102077.0;;;8.55;100.0
37420;BME280;47344;52.374;4.816;2023-02-02T00:45:24;102078.0;;;8.42;100.0
37420;BME280;47344;52.374;4.816;2023-02-02T00:47:00;102077.0;;;8.48;100.0
37420;BME280;47344;52.374;4.816;2023-02-02T00:48:37;102074.0;;;8.48;100.0
37420;BME280;47344;52.374;4.816;2023-02-02T00:50:17;102069.0;;;8.27;100.0
37420;BME280;47344;52.374;4.816;2023-02-02T00:53:31;102066.0;;;8.38;100.0
37420;BME280;47344;52.374;4.816;2023-02-02T00:55:08;102070.0;;;8.34;100.0
37420;BME280;47344;52.374;4.816;2023-02-02T00:56:45;102062.0;;;8.49;100.0
37420;BME280;47344;52.374;4.816;2023-02-02T00:58:22;102067.0;;;8.55;100.0
37420;BME280;47344;52.374;4.816;2023-02-02T01:01:34;102065.0;;;8.4;100.0
37420;BME280;47344;52.374;4.816;2023-02-02T01:03:12;102068.0;;;8.43;100.0
37420;BME280;47344;52.374;4.816;2023-02-02T01:04:48;102066.0;;;8.38;100.0
37420;BME280;47344;52.374;4.816;2023-02-02T01:08:00;102062.0;;;8.51;100.0
37420;BME280;47344;52.374;4.816;2023-02-02T01:09:37;102066.0;;;8.65;100.0
37420;BME280;47344;52.374;4.816;2023-02-02T01:11:14;102057.0;;;8.53;100.0
37420;BME280;47344;52.374;4.816;2023-02-02T01:14:27;102057.0;;;8.56;100.0
37420;BME280;47344;52.374;4.816;2023-02-02T01:16:04;102055.0;;;8.51;100.0
37420;BME280;47344;52.374;4.816;2023-02-02T01:17:41;102057.0;;;8.63;100.0
37420;BME280;47344;52.374;4.816;2023-02-02T01:19:18;102055.0;;;8.59;100.0
37420;BME280;47344;52.374;4.816;2023-02-02T01:22:33;102056.0;;;8.55;100.0
37420;BME280;47344;52.374;4.816;2023-02-02T01:24:10;102056.0;;;8.58;100.0
37420;BME280;47344;52.374;4.816;2023-02-02T01:25:52;102053.0;;;8.51;100.0
37420;BME280;47344;52.374;4.816;2023-02-02T01:29:04;102060.0;;;8.51;100.0
37420;BME280;47344;52.374;4.816;2023-02-02T01:30:40;102063.0;;;8.52;100.0
37420;BME280;47344;52.374;4.816;2023-02-02T01:32:17;102062.0;;;8.63;100.0
37420;BME280;47344;52.374;4.816;2023-02-02T01:33:53;102068.0;;;8.56;100.0
37420;BME280;47344;52.374;4.816;2023-02-02T01:37:05;102063.0;;;8.4;100.0
37420;BME280;47344;52.374;4.816;2023-02-02T01:38:42;102058.0;;;8.55;100.0
37420;BME280;47344;52.374;4.816;2023-02-02T01:40:18;102057.0;;;8.49;100.0
37420;BME280;47344;52.374;4.816;2023-02-02T01:43:51;102056.0;;;8.5;100.0
37420;BME280;47344;52.374;4.816;2023-02-02T01:45:28;102056.0;;;8.49;100.0
37420;BME280;47344;52.374;4.816;2023-02-02T01:47:05;102059.0;;;8.42;100.0
37420;BME280;47344;52.374;4.816;2023-02-02T01:48:44;102057.0;;;8.34;100.0
37420;BME280;47344;52.374;4.816;2023-02-02T01:52:09;102058.0;;;8.34;100.0
37420;BME280;47344;52.374;4.816;2023-02-02T01:53:50;102071.0;;;8.39;100.0
37420;BME280;47344;52.374;4.816;2023-02-02T01:55:30;102063.0;;;8.43;100.0
37420;BME280;47344;52.374;4.816;2023-02-02T01:57:11;102064.0;;;8.24;100.0
37420;BME280;47344;52.374;4.816;2023-02-02T02:00:27;102067.0;;;8.28;100.0
37420;BME280;47344;52.374;4.816;2023-02-02T02:02:04;102065.0;;;8.26;100.0
37420;BME280;47344;52.374;4.816;2023-02-02T02:03:41;102060.0;;;8.31;100.0
37420;BME280;47344;52.374;4.816;2023-02-02T02:05:24;102060.0;;;8.27;100.0
37420;BME280;47344;52.374;4.816;2023-02-02T02:08:45;102053.0;;;8.26;100.0
37420;BME280;47344;52.374;4.816;2023-02-02T02:10:36;102049.0;;;8.31;100.0
37420;BME280;47344;52.374;4.816;2023-02-02T02:12:14;102048.0;;;8.24;100.0
37420;BME280;47344;52.374;4.816;2023-02-02T02:18:11;102041.0;;;8.33;100.0
37420;BME280;47344;52.374;4.816;2023-02-02T02:28:38;102030.0;;;8.41;100.0
37420;BME280;47344;52.374;4.816;2023-02-02T02:31:45;102032.0;;;8.48;100.0
37420;BME280;47344;52.374;4.816;2023-02-02T02:34:33;102032.0;;;8.48;100.0
37420;BME280;47344;52.374;4.816;2023-02-02T02:38:10;102032.0;;;8.53;100.0
37420;BME280;47344;52.374;4.816;2023-02-02T02:39:54;102032.0;;;8.56;100.0
37420;BME280;47344;52.374;4.816;2023-02-02T02:41:38;102036.0;;;8.64;100.0
37420;BME280;47344;52.374;4.816;2023-02-02T02:43:20;102031.0;;;8.57;100.0
37420;BME280;47344;52.374;4.816;2023-02-02T02:45:03;102023.0;;;8.68;100.0
37420;BME280;47344;52.374;4.816;2023-02-02T02:48:18;102035.0;;;8.74;100.0
37420;BME280;47344;52.374;4.816;2023-02-02T02:49:55;102033.0;;;8.69;100.0
37420;BME280;47344;52.374;4.816;2023-02-02T02:51:49;102036.0;;;8.76;100.0
37420;BME280;47344;52.374;4.816;2023-02-02T02:53:25;102032.0;;;8.69;100.0
37420;BME280;47344;52.374;4.816;2023-02-02T02:56:47;102044.0;;;8.76;100.0
37420;BME280;47344;52.374;4.816;2023-02-02T02:59:35;102050.0;;;8.88;100.0
37420;BME280;47344;52.374;4.816;2023-02-02T03:01:28;102053.0;;;8.88;100.0
37420;BME280;47344;52.374;4.816;2023-02-02T03:03:17;102057.0;;;8.83;100.0
37420;BME280;47344;52.374;4.816;2023-02-02T03:05:06;102056.0;;;8.86;100.0
37420;BME280;47344;52.374;4.816;2023-02-02T03:06:51;102070.0;;;8.89;100.0
37420;BME280;47344;52.374;4.816;2023-02-02T03:08:32;102073.0;;;8.86;100.0
37420;BME280;47344;52.374;4.816;2023-02-02T03:10:14;102060.0;;;8.81;100.0
37420;BME280;47344;52.374;4.816;2023-02-02T03:13:31;102066.0;;;8.89;100.0
37420;BME280;47344;52.374;4.816;2023-02-02T03:15:08;102063.0;;;8.84;100.0
37420;BME280;47344;52.374;4.816;2023-02-02T03:16:45;102071.0;;;8.91;100.0
37420;BME280;47344;52.374;4.816;2023-02-02T03:20:02;102066.0;;;8.91;100.0
37420;BME280;47344;52.374;4.816;2023-02-02T03:21:39;102070.0;;;8.98;100.0
37420;BME280;47344;52.374;4.816;2023-02-02T03:23:15;102063.0;;;9.0;100.0
37420;BME280;47344;52.374;4.816;2023-02-02T03:24:52;102059.0;;;8.94;100.0
37420;BME280;47344;52.374;4.816;2023-02-02T03:28:05;102065.0;;;8.94;100.0
37420;BME280;47344;52.374;4.816;2023-02-02T03:29:42;102061.0;;;8.92;100.0
37420;BME280;47344;52.374;4.816;2023-02-02T03:31:18;102043.0;;;8.97;100.0
37420;BME280;47344;52.374;4.816;2023-02-02T03:34:31;102056.0;;;8.91;100.0
37420;BME280;47344;52.374;4.816;2023-02-02T03:36:08;102044.0;;;8.98;100.0
37420;BME280;47344;52.374;4.816;2023-02-02T03:37:45;102053.0;;;8.98;100.0
37420;BME280;47344;52.374;4.816;2023-02-02T03:39:21;102050.0;;;8.98;100.0
37420;BME280;47344;52.374;4.816;2023-02-02T03:42:34;102051.0;;;9.06;100.0
37420;BME280;47344;52.374;4.816;2023-02-02T03:44:10;102058.0;;;8.91;100.0
37420;BME280;47344;52.374;4.816;2023-02-02T03:45:46;102050.0;;;8.91;100.0
37420;BME280;47344;52.374;4.816;2023-02-02T03:48:58;102057.0;;;9.0;100.0
37420;BME280;47344;52.374;4.816;2023-02-02T03:50:35;102058.0;;;9.07;100.0
37420;BME280;47344;52.374;4.816;2023-02-02T03:52:12;102051.0;;;9.03;100.0
37420;BME280;47344;52.374;4.816;2023-02-02T03:55:25;102056.0;;;9.18;100.0
37420;BME280;47344;52.374;4.816;2023-02-02T03:57:01;102059.0;;;9.13;100.0
37420;BME280;47344;52.374;4.816;2023-02-02T03:58:37;102063.0;;;9.09;100.0
37420;BME280;47344;52.374;4.816;2023-02-02T04:00:13;102048.0;;;9.06;100.0
37420;BME280;47344;52.374;4.816;2023-02-02T04:03:26;102055.0;;;9.03;100.0
37420;BME280;47344;52.374;4.816;2023-02-02T04:05:03;102061.0;;;9.06;100.0
37420;BME280;47344;52.374;4.816;2023-02-02T04:06:39;102056.0;;;9.14;100.0
37420;BME280;47344;52.374;4.816;2023-02-02T04:09:52;102052.0;;;9.21;100.0
37420;BME280;47344;52.374;4.816;2023-02-02T04:11:28;102048.0;;;9.06;100.0
37420;BME280;47344;52.374;4.816;2023-02-02T04:13:04;102053.0;;;9.1;100.0
37420;BME280;47344;52.374;4.816;2023-02-02T04:16:16;102058.0;;;9.02;100.0
37420;BME280;47344;52.374;4.816;2023-02-02T04:17:52;102047.0;;;9.1;100.0
37420;BME280;47344;52.374;4.816;2023-02-02T04:19:28;102061.0;;;9.05;100.0
37420;BME280;47344;52.374;4.816;2023-02-02T04:22:44;102065.0;;;9.06;100.0
37420;BME280;47344;52.374;4.816;2023-02-02T04:24:20;102065.0;;;9.02;100.0
37420;BME280;47344;52.374;4.816;2023-02-02T04:25:58;102066.0;;;9.0;100.0
37420;BME280;47344;52.374;4.816;2023-02-02T04:27:34;102060.0;;;9.06;100.0
37420;BME280;47344;52.374;4.816;2023-02-02T04:30:47;102070.0;;;9.06;100.0
37420;BME280;47344;52.374;4.816;2023-02-02T04:32:23;102064.0;;;9.09;100.0
37420;BME280;47344;52.374;4.816;2023-02-02T04:33:59;102058.0;;;9.05;100.0
37420;BME280;47344;52.374;4.816;2023-02-02T04:37:12;102072.0;;;9.14;100.0
37420;BME280;47344;52.374;4.816;2023-02-02T04:38:49;102060.0;;;9.08;100.0
37420;BME280;47344;52.374;4.816;2023-02-02T04:40:25;102061.0;;;9.06;100.0
37420;BME280;47344;52.374;4.816;2023-02-02T04:43:39;102066.0;;;9.08;100.0
37420;BME280;47344;52.374;4.816;2023-02-02T04:45:15;102061.0;;;9.06;100.0
37420;BME280;47344;52.374;4.816;2023-02-02T04:46:52;102057.0;;;9.11;100.0
37420;BME280;47344;52.374;4.816;2023-02-02T04:48:28;102074.0;;;9.08;100.0
37420;BME280;47344;52.374;4.816;2023-02-02T04:51:43;102076.0;;;9.11;100.0
37420;BME280;47344;52.374;4.816;2023-02-02T04:53:19;102072.0;;;9.13;100.0
37420;BME280;47344;52.374;4.816;2023-02-02T04:54:55;102080.0;;;9.18;100.0
37420;BME280;47344;52.374;4.816;2023-02-02T04:58:09;102069.0;;;9.15;100.0
37420;BME280;47344;52.374;4.816;2023-02-02T04:59:45;102055.0;;;9.06;100.0
37420;BME280;47344;52.374;4.816;2023-02-02T05:01:21;102067.0;;;9.22;100.0
37420;BME280;47344;52.374;4.816;2023-02-02T05:04:35;102077.0;;;9.21;100.0
37420;BME280;47344;52.374;4.816;2023-02-02T05:06:12;102074.0;;;9.09;100.0
37420;BME280;47344;52.374;4.816;2023-02-02T05:07:48;102080.0;;;9.15;100.0
37420;BME280;47344;52.374;4.816;2023-02-02T05:09:25;102080.0;;;9.22;100.0
37420;BME280;47344;52.374;4.816;2023-02-02T05:12:42;102078.0;;;9.23;100.0
37420;BME280;47344;52.374;4.816;2023-02-02T05:14:19;102076.0;;;9.14;100.0
37420;BME280;47344;52.374;4.816;2023-02-02T05:15:55;102063.0;;;9.14;100.0
37420;BME280;47344;52.374;4.816;2023-02-02T05:19:09;102078.0;;;9.22;100.0
37420;BME280;47344;52.374;4.816;2023-02-02T05:20:48;102078.0;;;9.14;100.0
37420;BME280;47344;52.374;4.816;2023-02-02T05:22:25;102076.0;;;9.26;100.0
37420;BME280;47344;52.374;4.816;2023-02-02T05:24:03;102080.0;;;9.25;100.0
37420;BME280;47344;52.374;4.816;2023-02-02T05:27:15;102076.0;;;9.24;100.0
37420;BME280;47344;52.374;4.816;2023-02-02T05:28:52;102080.0;;;9.13;100.0
37420;BME280;47344;52.374;4.816;2023-02-02T05:30:28;102076.0;;;9.14;100.0
37420;BME280;47344;52.374;4.816;2023-02-02T05:33:40;102082.0;;;9.13;100.0
37420;BME280;47344;52.374;4.816;2023-02-02T05:35:17;102072.0;;;9.21;100.0
37420;BME280;47344;52.374;4.816;2023-02-02T05:36:53;102083.0;;;9.18;100.0
37420;BME280;47344;52.374;4.816;2023-02-02T05:40:09;102089.0;;;9.17;100.0
37420;BME280;47344;52.374;4.816;2023-02-02T05:41:45;102086.0;;;9.21;100.0
37420;BME280;47344;52.374;4.816;2023-02-02T05:43:23;102082.0;;;9.18;100.0
37420;BME280;47344;52.374;4.816;2023-02-02T05:45:00;102087.0;;;9.26;100.0
37420;BME280;47344;52.374;4.816;2023-02-02T05:48:13;102089.0;;;9.26;100.0
37420;BME280;47344;52.374;4.816;2023-02-02T05:49:49;102103.0;;;9.14;100.0
37420;BME280;47344;52.374;4.816;2023-02-02T05:51:27;102090.0;;;9.16;100.0
37420;BME280;47344;52.374;4.816;2023-02-02T05:54:43;102103.0;;;9.13;100.0
37420;BME280;47344;52.374;4.816;2023-02-02T05:56:20;102093.0;;;9.13;100.0
37420;BME280;47344;52.374;4.816;2023-02-02T05:57:56;102093.0;;;9.18;100.0
37420;BME280;47344;52.374;4.816;2023-02-02T05:59:32;102086.0;;;9.11;100.0
37420;BME280;47344;52.374;4.816;2023-02-02T06:02:44;102101.0;;;8.98;100.0
37420;BME280;47344;52.374;4.816;2023-02-02T06:04:21;102087.0;;;9.0;100.0
37420;BME280;47344;52.374;4.816;2023-02-02T06:05:58;102087.0;;;9.05;100.0
37420;BME280;47344;52.374;4.816;2023-02-02T06:09:10;102089.0;;;9.0;100.0
37420;BME280;47344;52.374;4.816;2023-02-02T06:10:46;102098.0;;;8.94;100.0
37420;BME280;47344;52.374;4.816;2023-02-02T06:12:22;102096.0;;;8.97;100.0
37420;BME280;47344;52.374;4.816;2023-02-02T06:15:35;102094.0;;;9.0;100.0
37420;BME280;47344;52.374;4.816;2023-02-02T06:17:12;102105.0;;;9.0;100.0
37420;BME280;47344;52.374;4.816;2023-02-02T06:18:49;102123.0;;;8.98;100.0
37420;BME280;47344;52.374;4.816;2023-02-02T06:20:25;102123.0;;;8.92;100.0
37420;BME280;47344;52.374;4.816;2023-02-02T06:23:44;102122.0;;;8.92;100.0
37420;BME280;47344;52.374;4.816;2023-02-02T06:25:21;102126.0;;;8.98;100.0
37420;BME280;47344;52.374;4.816;2023-02-02T06:26:58;102125.0;;;8.93;100.0
37420;BME280;47344;52.374;4.816;2023-02-02T06:30:12;102128.0;;;8.94;100.0
37420;BME280;47344;52.374;4.816;2023-02-02T06:31:49;102134.0;;;8.86;100.0
37420;BME280;47344;52.374;4.816;2023-02-02T06:33:25;102130.0;;;8.96;100.0
37420;BME280;47344;52.374;4.816;2023-02-02T06:35:02;102126.0;;;8.92;100.0
37420;BME280;47344;52.374;4.816;2023-02-02T06:38:18;102130.0;;;8.9;100.0
37420;BME280;47344;52.374;4.816;2023-02-02T06:39:55;102130.0;;;8.84;100.0
37420;BME280;47344;52.374;4.816;2023-02-02T06:41:31;102141.0;;;8.83;100.0
37420;BME280;47344;52.374;4.816;2023-02-02T06:44:44;102141.0;;;8.83;100.0
37420;BME280;47344;52.374;4.816;2023-02-02T06:46:21;102132.0;;;8.85;100.0
37420;BME280;47344;52.374;4.816;2023-02-02T06:47:58;102128.0;;;8.96;100.0
37420;BME280;47344;52.374;4.816;2023-02-02T06:51:13;102134.0;;;8.94;100.0
37420;BME280;47344;52.374;4.816;2023-02-02T06:52:49;102135.0;;;8.93;100.0
37420;BME280;47344;52.374;4.816;2023-02-02T06:54:26;102136.0;;;8.97;100.0
37420;BME280;47344;52.374;4.816;2023-02-02T06:56:04;102142.0;;;8.9;100.0
37420;BME280;47344;52.374;4.816;2023-02-02T06:59:19;102138.0;;;8.91;100.0
37420;BME280;47344;52.374;4.816;2023-02-02T07:01:00;102133.0;;;8.91;100.0
37420;BME280;47344;52.374;4.816;2023-02-02T07:02:37;102132.0;;;8.98;100.0
37420;BME280;47344;52.374;4.816;2023-02-02T07:05:52;102136.0;;;9.01;100.0
37420;BME280;47344;52.374;4.816;2023-02-02T07:07:30;102155.0;;;9.11;100.0
37420;BME280;47344;52.374;4.816;2023-02-02T07:09:07;102144.0;;;8.97;100.0
37420;BME280;47344;52.374;4.816;2023-02-02T07:10:44;102157.0;;;8.94;100.0
37420;BME280;47344;52.374;4.816;2023-02-02T07:13:56;102155.0;;;9.06;100.0
37420;BME280;47344;52.374;4.816;2023-02-02T07:15:33;102156.0;;;8.98;100.0
37420;BME280;47344;52.374;4.816;2023-02-02T07:17:09;102164.0;;;8.98;100.0
37420;BME280;47344;52.374;4.816;2023-02-02T07:20:23;102170.0;;;9.07;100.0
37420;BME280;47344;52.374;4.816;2023-02-02T07:21:59;102186.0;;;9.06;100.0
37420;BME280;47344;52.374;4.816;2023-02-02T07:23:35;102176.0;;;9.05;100.0
37420;BME280;47344;52.374;4.816;2023-02-02T07:26:47;102177.0;;;9.06;100.0
37420;BME280;47344;52.374;4.816;2023-02-02T07:28:24;102176.0;;;9.06;100.0
37420;BME280;47344;52.374;4.816;2023-02-02T07:30:03;102170.0;;;9.08;100.0
37420;BME280;47344;52.374;4.816;2023-02-02T07:31:40;102177.0;;;9.07;100.0
37420;BME280;47344;52.374;4.816;2023-02-02T07:34:52;102185.0;;;9.03;100.0
37420;BME280;47344;52.374;4.816;2023-02-02T07:36:29;102186.0;;;9.1;100.0
37420;BME280;47344;52.374;4.816;2023-02-02T07:38:04;102191.0;;;9.03;100.0
37420;BME280;47344;52.374;4.816;2023-02-02T07:41:18;102189.0;;;9.01;100.0
37420;BME280;47344;52.374;4.816;2023-02-02T07:42:59;102178.0;;;9.03;100.0
37420;BME280;47344;52.374;4.816;2023-02-02T07:44:35;102195.0;;;9.02;100.0
37420;BME280;47344;52.374;4.816;2023-02-02T07:46:13;102184.0;;;9.06;100.0
37420;BME280;47344;52.374;4.816;2023-02-02T07:49:32;102201.0;;;9.14;100.0
37420;BME280;47344;52.374;4.816;2023-02-02T07:51:10;102205.0;;;9.11;100.0
37420;BME280;47344;52.374;4.816;2023-02-02T07:52:49;102202.0;;;9.09;100.0
37420;BME280;47344;52.374;4.816;2023-02-02T07:56:06;102202.0;;;9.07;100.0
37420;BME280;47344;52.374;4.816;2023-02-02T07:57:44;102199.0;;;9.14;100.0
37420;BME280;47344;52.374;4.816;2023-02-02T07:59:21;102197.0;;;9.14;100.0
37420;BME280;47344;52.374;4.816;2023-02-02T08:00:59;102203.0;;;9.07;100.0
37420;BME280;47344;52.374;4.816;2023-02-02T08:04:12;102205.0;;;9.06;100.0
37420;BME280;47344;52.374;4.816;2023-02-02T08:05:50;102205.0;;;9.09;100.0
37420;BME280;47344;52.374;4.816;2023-02-02T08:07:25;102198.0;;;9.07;100.0
37420;BME280;47344;52.374;4.816;2023-02-02T08:10:46;102213.0;;;9.14;100.0
37420;BME280;47344;52.374;4.816;2023-02-02T08:12:23;102206.0;;;9.11;100.0
37420;BME280;47344;52.374;4.816;2023-02-02T08:14:02;102215.0;;;9.09;100.0
37420;BME280;47344;52.374;4.816;2023-02-02T08:15:39;102218.0;;;9.15;100.0
37420;BME280;47344;52.374;4.816;2023-02-02T08:18:52;102209.0;;;9.06;100.0
37420;BME280;47344;52.374;4.816;2023-02-02T08:20:29;102226.0;;;9.09;100.0
37420;BME280;47344;52.374;4.816;2023-02-02T08:22:05;102217.0;;;9.19;100.0
37420;BME280;47344;52.374;4.816;2023-02-02T08:25:18;102220.0;;;9.23;100.0
37420;BME280;47344;52.374;4.816;2023-02-02T08:26:54;102226.0;;;9.16;100.0
37420;BME280;47344;52.374;4.816;2023-02-02T08:28:31;102219.0;;;9.17;100.0
37420;BME280;47344;52.374;4.816;2023-02-02T08:30:09;102223.0;;;9.23;100.0
37420;BME280;47344;52.374;4.816;2023-02-02T08:33:22;102227.0;;;9.27;100.0
37420;BME280;47344;52.374;4.816;2023-02-02T08:34:58;102223.0;;;9.34;100.0
37420;BME280;47344;52.374;4.816;2023-02-02T08:36:34;102228.0;;;9.32;100.0
37420;BME280;47344;52.374;4.816;2023-02-02T08:39:47;102237.0;;;9.23;100.0
37420;BME280;47344;52.374;4.816;2023-02-02T08:41:23;102239.0;;;9.39;100.0
37420;BME280;47344;52.374;4.816;2023-02-02T08:42:59;102234.0;;;9.16;100.0
37420;BME280;47344;52.374;4.816;2023-02-02T08:46:13;102242.0;;;9.28;100.0
37420;BME280;47344;52.374;4.816;2023-02-02T08:47:52;102245.0;;;9.27;100.0
37420;BME280;47344;52.374;4.816;2023-02-02T08:49:29;102255.0;;;9.22;100.0
37420;BME280;47344;52.374;4.816;2023-02-02T08:51:06;102241.0;;;9.18;100.0
37420;BME280;47344;52.374;4.816;2023-02-02T08:54:19;102244.0;;;9.19;100.0
37420;BME280;47344;52.374;4.816;2023-02-02T08:55:58;102253.0;;;9.31;100.0
37420;BME280;47344;52.374;4.816;2023-02-02T08:57:35;102255.0;;;9.25;100.0
37420;BME280;47344;52.374;4.816;2023-02-02T09:00:47;102246.0;;;9.25;100.0
37420;BME280;47344;52.374;4.816;2023-02-02T09:02:23;102259.0;;;9.18;100.0
37420;BME280;47344;52.374;4.816;2023-02-02T09:04:02;102252.0;;;9.23;100.0
37420;BME280;47344;52.374;4.816;2023-02-02T09:05:39;102257.0;;;9.27;100.0
37420;BME280;47344;52.374;4.816;2023-02-02T09:08:51;102255.0;;;9.19;100.0
37420;BME280;47344;52.374;4.816;2023-02-02T09:10:33;102261.0;;;9.31;100.0
37420;BME280;47344;52.374;4.816;2023-02-02T09:12:10;102269.0;;;9.25;100.0
37420;BME280;47344;52.374;4.816;2023-02-02T09:15:28;102262.0;;;9.24;100.0
37420;BME280;47344;52.374;4.816;2023-02-02T09:17:05;102267.0;;;9.18;100.0
37420;BME280;47344;52.374;4.816;2023-02-02T09:18:42;102272.0;;;9.23;100.0
37420;BME280;47344;52.374;4.816;2023-02-02T09:20:19;102281.0;;;9.25;100.0
37420;BME280;47344;52.374;4.816;2023-02-02T09:23:33;102265.0;;;9.3;100.0
37420;BME280;47344;52.374;4.816;2023-02-02T09:25:13;102283.0;;;9.33;100.0
37420;BME280;47344;52.374;4.816;2023-02-02T09:26:50;102285.0;;;9.26;100.0
37420;BME280;47344;52.374;4.816;2023-02-02T09:30:03;102285.0;;;9.25;100.0
37420;BME280;47344;52.374;4.816;2023-02-02T09:31:40;102286.0;;;9.23;100.0
37420;BME280;47344;52.374;4.816;2023-02-02T09:33:16;102289.0;;;9.15;100.0
37420;BME280;47344;52.374;4.816;2023-02-02T09:36:30;102270.0;;;9.36;100.0
37420;BME280;47344;52.374;4.816;2023-02-02T09:38:06;102274.0;;;9.25;100.0
37420;BME280;47344;52.374;4.816;2023-02-02T09:39:42;102273.0;;;9.23;100.0
37420;BME280;47344;52.374;4.816;2023-02-02T09:41:31;102285.0;;;9.17;100.0
37420;BME280;47344;52.374;4.816;2023-02-02T09:43:38;102281.0;;;9.21;100.0
37420;BME280;47344;52.374;4.816;2023-02-02T09:47:15;102285.0;;;9.21;100.0
37420;BME280;47344;52.374;4.816;2023-02-02T09:48:59;102288.0;;;9.19;100.0
37420;BME280;47344;52.374;4.816;2023-02-02T09:50:42;102285.0;;;9.23;100.0
37420;BME280;47344;52.374;4.816;2023-02-02T09:52:25;102276.0;;;9.31;100.0
37420;BME280;47344;52.374;4.816;2023-02-02T09:54:10;102287.0;;;9.41;100.0
37420;BME280;47344;52.374;4.816;2023-02-02T09:55:55;102290.0;;;9.34;100.0
37420;BME280;47344;52.374;4.816;2023-02-02T09:59:22;102301.0;;;9.32;100.0
37420;BME280;47344;52.374;4.816;2023-02-02T10:01:05;102282.0;;;9.42;100.0
37420;BME280;47344;52.374;4.816;2023-02-02T10:02:44;102303.0;;;9.57;100.0
37420;BME280;47344;52.374;4.816;2023-02-02T10:04:26;102300.0;;;9.69;100.0
37420;BME280;47344;52.374;4.816;2023-02-02T10:08:00;102293.0;;;9.53;100.0
37420;BME280;47344;52.374;4.816;2023-02-02T10:09:46;102300.0;;;9.55;100.0
37420;BME280;47344;52.374;4.816;2023-02-02T10:11:31;102302.0;;;9.59;100.0
37420;BME280;47344;52.374;4.816;2023-02-02T10:13:14;102307.0;;;9.61;100.0
37420;BME280;47344;52.374;4.816;2023-02-02T10:14:55;102310.0;;;9.67;100.0
37420;BME280;47344;52.374;4.816;2023-02-02T10:18:18;102309.0;;;9.71;100.0
37420;BME280;47344;52.374;4.816;2023-02-02T10:20:04;102318.0;;;9.85;100.0
37420;BME280;47344;52.374;4.816;2023-02-02T10:21:56;102307.0;;;9.91;100.0
37420;BME280;47344;52.374;4.816;2023-02-02T10:23:38;102316.0;;;9.83;100.0
37420;BME280;47344;52.374;4.816;2023-02-02T10:25:19;102320.0;;;9.73;100.0
37420;BME280;47344;52.374;4.816;2023-02-02T10:28:42;102320.0;;;9.71;100.0
37420;BME280;47344;52.374;4.816;2023-02-02T10:30:34;102320.0;;;9.78;100.0
37420;BME280;47344;52.374;4.816;2023-02-02T10:32:24;102321.0;;;9.81;100.0
37420;BME280;47344;52.374;4.816;2023-02-02T10:34:09;102320.0;;;9.89;100.0
37420;BME280;47344;52.374;4.816;2023-02-02T10:35:54;102331.0;;;9.85;100.0
37420;BME280;47344;52.374;4.816;2023-02-02T10:39:26;102331.0;;;9.83;100.0
37420;BME280;47344;52.374;4.816;2023-02-02T10:41:14;102319.0;;;9.73;100.0
37420;BME280;47344;52.374;4.816;2023-02-02T10:44:08;102331.0;;;9.77;100.0
37420;BME280;47344;52.374;4.816;2023-02-02T10:45:51;102326.0;;;9.73;100.0
37420;BME280;47344;52.374;4.816;2023-02-02T10:47:32;102326.0;;;9.82;100.0
37420;BME280;47344;52.374;4.816;2023-02-02T10:49:14;102327.0;;;9.66;100.0
37420;BME280;47344;52.374;4.816;2023-02-02T10:51:01;102327.0;;;9.77;100.0
37420;BME280;47344;52.374;4.816;2023-02-02T10:52:44;102327.0;;;9.86;100.0
37420;BME280;47344;52.374;4.816;2023-02-02T10:56:39;102326.0;;;10.14;100.0
37420;BME280;47344;52.374;4.816;2023-02-02T11:00:09;102324.0;;;10.06;100.0
37420;BME280;47344;52.374;4.816;2023-02-02T11:01:49;102322.0;;;10.09;100.0
37420;BME280;47344;52.374;4.816;2023-02-02T11:03:28;102323.0;;;10.15;100.0
37420;BME280;47344;52.374;4.816;2023-02-02T11:06:54;102330.0;;;10.25;100.0
37420;BME280;47344;52.374;4.816;2023-02-02T11:08:40;102330.0;;;10.16;100.0
37420;BME280;47344;52.374;4.816;2023-02-02T11:10:17;102334.0;;;10.16;100.0
37420;BME280;47344;52.374;4.816;2023-02-02T11:11:56;102330.0;;;10.13;100.0
37420;BME280;47344;52.374;4.816;2023-02-02T11:13:41;102349.0;;;10.08;100.0
37420;BME280;47344;52.374;4.816;2023-02-02T11:15:24;102330.0;;;9.92;100.0
37420;BME280;47344;52.374;4.816;2023-02-02T11:18:42;102334.0;;;9.92;100.0
37420;BME280;47344;52.374;4.816;2023-02-02T11:50:57;102324.0;;;9.27;100.0
37420;BME280;47344;52.374;4.816;2023-02-02T11:52:37;102326.0;;;9.42;100.0
37420;BME280;47344;52.374;4.816;2023-02-02T11:54:16;102320.0;;;9.61;100.0
37420;BME280;47344;52.374;4.816;2023-02-02T11:55:58;102323.0;;;9.63;100.0
37420;BME280;47344;52.374;4.816;2023-02-02T11:59:27;102325.0;;;9.64;100.0
37420;BME280;47344;52.374;4.816;2023-02-02T12:01:05;102333.0;;;9.56;100.0